Time;durP1;ratioP1;P1;durP2;ratioP2;P2;SDS_P1;SDS_P2;PMS_P1;PMS_P2;Temp;Humidity;BMP_temperature;BMP_pressure;BME280_temperature;BME280_humidity;BME280_pressure;Samples;Min_cycle;Max_cycle;Signal;HPM_P1;HPM_P2
2023/03/18 00:00:29;;;;;;;13.70;3.17;;;;;;;;;;5107361;28;20055;-74
2023/03/18 00:02:55;;;;;;;10.77;2.80;;;;;;;;;;5108163;28;20660;-75
2023/03/18 00:05:20;;;;;;;9.40;2.70;;;;;;;;;;5113507;28;20075;-75
2023/03/18 00:07:46;;;;;;;11.57;2.90;;;;;;;;;;5099931;28;20044;-75
2023/03/18 00:10:12;;;;;;;12.80;3.03;;;;;;;;;;5101311;28;20503;-75
2023/03/18 00:12:39;;;;;;;9.90;2.55;;;;;;;;;;5109747;28;20044;-74
2023/03/18 00:15:07;;;;;;;13.43;2.97;;;;;;;;;;5109760;28;20071;-74
2023/03/18 00:17:32;;;;;;;13.65;2.70;;;;;;;;;;5106997;28;20028;-74
2023/03/18 00:20:04;;;;;;;12.15;2.88;;;;;;;;;;5112085;28;20042;-75
2023/03/18 00:22:33;;;;;;;16.73;2.60;;;;;;;;;;5113442;28;20042;-74
2023/03/18 00:24:59;;;;;;;20.90;2.90;;;;;;;;;;5102512;28;20035;-75
2023/03/18 00:27:25;;;;;;;9.82;2.50;;;;;;;;;;5109795;28;20441;-74
2023/03/18 00:29:50;;;;;;;14.75;2.85;;;;;;;;;;5112068;28;20036;-74
2023/03/18 00:32:16;;;;;;;10.90;2.78;;;;;;;;;;5102941;28;20119;-74
2023/03/18 00:34:41;;;;;;;13.25;3.53;;;;;;;;;;5102755;28;20040;-74
2023/03/18 00:37:07;;;;;;;12.85;3.55;;;;;;;;;;5106357;28;20774;-74
2023/03/18 00:39:32;;;;;;;15.48;2.83;;;;;;;;;;5101649;28;20071;-74
2023/03/18 00:42:00;;;;;;;20.95;3.55;;;;;;;;;;5108503;28;20035;-74
2023/03/18 00:44:26;;;;;;;14.27;2.72;;;;;;;;;;5113315;28;20028;-74
2023/03/18 00:46:51;;;;;;;12.38;2.60;;;;;;;;;;5112892;28;20123;-74
2023/03/18 00:49:17;;;;;;;12.52;3.50;;;;;;;;;;5113248;28;20039;-74
2023/03/18 00:51:43;;;;;;;12.35;2.80;;;;;;;;;;5106360;28;20043;-74
2023/03/18 00:54:11;;;;;;;15.90;3.03;;;;;;;;;;5104065;28;20047;-74
2023/03/18 00:56:37;;;;;;;17.60;2.90;;;;;;;;;;5111278;28;20494;-74
2023/03/18 00:59:04;;;;;;;8.48;2.15;;;;;;;;;;5113170;28;20484;-74
2023/03/18 01:01:30;;;;;;;19.17;3.10;;;;;;;;;;5104778;28;20035;-74
2023/03/18 01:03:56;;;;;;;18.20;3.05;;;;;;;;;;5107615;28;20043;-74
2023/03/18 01:06:27;;;;;;;24.80;3.20;;;;;;;;;;5112101;28;20028;-74
2023/03/18 01:08:54;;;;;;;10.57;2.65;;;;;;;;;;5112362;28;20121;-74
2023/03/18 01:11:20;;;;;;;13.40;2.90;;;;;;;;;;5111997;28;20126;-75
2023/03/18 01:13:46;;;;;;;15.13;2.83;;;;;;;;;;5111642;28;20043;-74
2023/03/18 01:16:12;;;;;;;7.40;2.25;;;;;;;;;;5100250;28;20038;-74
2023/03/18 01:18:38;;;;;;;12.48;3.05;;;;;;;;;;5112796;28;20479;-74
2023/03/18 01:21:04;;;;;;;9.82;2.10;;;;;;;;;;5099411;28;20077;-74
2023/03/18 01:23:29;;;;;;;13.82;2.92;;;;;;;;;;5104404;28;20043;-74
2023/03/18 01:25:56;;;;;;;14.27;3.63;;;;;;;;;;5112371;28;20044;-74
2023/03/18 01:28:22;;;;;;;13.52;2.60;;;;;;;;;;5108308;28;20031;-74
2023/03/18 01:30:48;;;;;;;8.02;2.17;;;;;;;;;;5111842;28;20053;-74
2023/03/18 01:33:14;;;;;;;5.88;2.30;;;;;;;;;;5098868;28;20531;-74
2023/03/18 01:35:40;;;;;;;8.93;2.40;;;;;;;;;;5112782;28;20093;-74
2023/03/18 01:38:06;;;;;;;5.45;2.25;;;;;;;;;;5097062;28;20057;-74
2023/03/18 01:40:33;;;;;;;9.25;2.50;;;;;;;;;;5111237;28;20459;-74
2023/03/18 01:43:19;;;;;;;20.38;6.30;;;;;;;;;;5099347;28;20031;-74
2023/03/18 01:45:52;;;;;;;12.77;5.40;;;;;;;;;;5091274;28;20055;-74
2023/03/18 01:48:22;;;;;;;22.27;8.27;;;;;;;;;;5102669;28;20065;-74
2023/03/18 01:50:53;;;;;;;23.95;7.90;;;;;;;;;;5105749;28;20036;-73
2023/03/18 01:53:20;;;;;;;28.23;10.77;;;;;;;;;;5107609;28;20039;-73
2023/03/18 01:55:47;;;;;;;25.85;10.82;;;;;;;;;;5109192;28;20422;-73
2023/03/18 01:58:18;;;;;;;16.25;5.38;;;;;;;;;;5098861;28;20073;-74
2023/03/18 02:00:48;;;;;;;14.18;5.47;;;;;;;;;;5110863;28;20028;-74
2023/03/18 02:03:14;;;;;;;15.00;5.18;;;;;;;;;;5108758;28;20070;-74
2023/03/18 02:05:42;;;;;;;12.18;4.65;;;;;;;;;;5111369;28;20035;-74
2023/03/18 02:08:08;;;;;;;9.73;3.92;;;;;;;;;;5115189;28;20045;-73
2023/03/18 02:10:34;;;;;;;12.02;2.72;;;;;;;;;;5111027;28;20057;-74
2023/03/18 02:13:06;;;;;;;7.60;2.70;;;;;;;;;;5114649;28;20479;-73
2023/03/18 02:15:33;;;;;;;7.55;2.60;;;;;;;;;;5114578;28;20027;-73
2023/03/18 02:18:07;;;;;;;9.13;2.78;;;;;;;;;;5108409;28;20047;-74
2023/03/18 02:20:48;;;;;;;10.05;3.30;;;;;;;;;;5114247;28;20647;-73
2023/03/18 02:23:48;;;;;;;8.45;2.83;;;;;;;;;;5110812;27;20472;-74
2023/03/18 02:26:19;;;;;;;5.65;2.10;;;;;;;;;;5115333;28;20120;-74
2023/03/18 02:28:45;;;;;;;5.20;2.40;;;;;;;;;;5107918;28;20118;-74
2023/03/18 02:31:12;;;;;;;5.65;2.15;;;;;;;;;;5114072;28;20098;-74
2023/03/18 02:33:39;;;;;;;8.40;2.05;;;;;;;;;;5108428;28;20034;-74
2023/03/18 02:36:11;;;;;;;4.38;2.20;;;;;;;;;;5114142;28;20040;-74
2023/03/18 02:38:43;;;;;;;6.57;2.42;;;;;;;;;;5115369;28;20474;-74
2023/03/18 02:41:17;;;;;;;7.57;2.65;;;;;;;;;;5115171;27;20054;-74
2023/03/18 02:43:44;;;;;;;5.75;2.45;;;;;;;;;;5112998;28;20104;-74
2023/03/18 02:46:22;;;;;;;6.72;2.30;;;;;;;;;;5115486;28;20031;-74
2023/03/18 02:48:48;;;;;;;10.13;2.33;;;;;;;;;;5114804;28;20031;-74
2023/03/18 02:51:15;;;;;;;7.82;2.67;;;;;;;;;;5114171;28;20048;-74
2023/03/18 02:53:41;;;;;;;8.82;2.20;;;;;;;;;;5114033;28;20063;-74
2023/03/18 02:56:07;;;;;;;9.23;3.05;;;;;;;;;;5112579;28;20032;-74
2023/03/18 02:58:34;;;;;;;5.47;2.35;;;;;;;;;;5115313;28;20058;-74
2023/03/18 03:01:00;;;;;;;7.35;2.50;;;;;;;;;;5113209;28;20459;-74
2023/03/18 03:03:26;;;;;;;6.38;2.60;;;;;;;;;;5114654;28;20084;-73
2023/03/18 03:05:52;;;;;;;10.13;2.60;;;;;;;;;;5114003;28;20044;-73
2023/03/18 03:08:18;;;;;;;8.57;2.67;;;;;;;;;;5105130;28;20112;-74
2023/03/18 03:10:43;;;;;;;4.82;2.50;;;;;;;;;;5108308;28;20077;-73
2023/03/18 03:13:10;;;;;;;8.23;3.03;;;;;;;;;;5113031;28;20044;-74
2023/03/18 03:15:37;;;;;;;9.05;2.88;;;;;;;;;;5099197;28;20046;-74
2023/03/18 03:18:03;;;;;;;9.48;2.92;;;;;;;;;;5103144;28;20028;-73
2023/03/18 03:20:32;;;;;;;5.07;2.55;;;;;;;;;;5109633;28;20091;-73
2023/03/18 03:22:58;;;;;;;6.07;3.17;;;;;;;;;;5100911;28;20380;-73
2023/03/18 03:25:25;;;;;;;5.38;2.45;;;;;;;;;;5110182;28;20097;-74
2023/03/18 03:27:51;;;;;;;8.02;3.75;;;;;;;;;;5103615;28;20475;-73
2023/03/18 03:30:17;;;;;;;10.32;3.25;;;;;;;;;;5111886;28;20059;-74
2023/03/18 03:32:43;;;;;;;6.82;3.17;;;;;;;;;;5108877;28;20032;-74
2023/03/18 03:35:12;;;;;;;14.20;3.45;;;;;;;;;;5114526;28;20036;-74
2023/03/18 03:37:37;;;;;;;8.65;4.00;;;;;;;;;;5100510;28;20032;-73
2023/03/18 03:40:05;;;;;;;11.70;4.05;;;;;;;;;;5112045;28;20038;-74
2023/03/18 03:42:31;;;;;;;12.00;4.00;;;;;;;;;;5114410;28;20042;-73
2023/03/18 03:44:56;;;;;;;12.82;4.10;;;;;;;;;;5103436;28;20399;-73
2023/03/18 03:47:22;;;;;;;11.93;4.07;;;;;;;;;;5114067;28;20042;-74
2023/03/18 03:49:47;;;;;;;10.40;4.10;;;;;;;;;;5114168;28;20031;-73
2023/03/18 03:52:12;;;;;;;10.93;4.18;;;;;;;;;;5110812;28;20023;-73
2023/03/18 03:54:40;;;;;;;14.68;4.47;;;;;;;;;;5113191;28;20048;-74
2023/03/18 03:57:06;;;;;;;12.23;3.95;;;;;;;;;;5107206;28;20388;-73
2023/03/18 03:59:32;;;;;;;13.00;4.45;;;;;;;;;;5114372;28;20042;-74
2023/03/18 04:01:58;;;;;;;9.45;4.00;;;;;;;;;;5112482;28;20036;-74
2023/03/18 04:04:23;;;;;;;13.63;4.30;;;;;;;;;;5105450;28;20063;-74
2023/03/18 04:06:49;;;;;;;16.63;4.97;;;;;;;;;;5113545;28;20076;-74
2023/03/18 04:09:16;;;;;;;11.48;4.85;;;;;;;;;;5105116;28;20152;-73
2023/03/18 04:11:43;;;;;;;9.82;4.05;;;;;;;;;;5104478;28;20478;-73
2023/03/18 04:14:09;;;;;;;12.23;4.22;;;;;;;;;;5099335;28;20057;-74
2023/03/18 04:16:34;;;;;;;9.13;3.47;;;;;;;;;;5107979;28;20031;-74
2023/03/18 04:18:59;;;;;;;13.90;4.68;;;;;;;;;;5113524;28;20062;-74
2023/03/18 04:21:26;;;;;;;8.27;4.07;;;;;;;;;;5113370;28;20081;-74
2023/03/18 04:23:52;;;;;;;13.85;4.30;;;;;;;;;;5113109;28;20039;-74
2023/03/18 04:26:17;;;;;;;9.35;4.00;;;;;;;;;;5112042;28;20032;-73
2023/03/18 04:28:43;;;;;;;13.52;4.30;;;;;;;;;;5114019;28;20024;-73
2023/03/18 04:31:08;;;;;;;13.30;4.20;;;;;;;;;;5108558;28;20028;-73
2023/03/18 04:33:34;;;;;;;11.88;4.35;;;;;;;;;;5111475;28;20070;-73
2023/03/18 04:35:59;;;;;;;9.43;3.95;;;;;;;;;;5111998;28;20027;-74
2023/03/18 04:38:27;;;;;;;12.40;4.15;;;;;;;;;;5110071;28;20031;-74
2023/03/18 04:40:52;;;;;;;10.07;4.35;;;;;;;;;;5113690;28;20031;-73
2023/03/18 04:43:18;;;;;;;14.30;4.25;;;;;;;;;;5111822;28;20033;-74
2023/03/18 04:45:43;;;;;;;14.80;4.25;;;;;;;;;;5112374;28;20114;-74
2023/03/18 04:48:09;;;;;;;12.05;4.00;;;;;;;;;;5100623;28;20028;-73
2023/03/18 04:50:34;;;;;;;17.65;4.05;;;;;;;;;;5109768;28;20027;-73
2023/03/18 04:53:00;;;;;;;11.40;3.42;;;;;;;;;;5103557;28;20046;-73
2023/03/18 04:55:26;;;;;;;11.05;4.20;;;;;;;;;;5112282;28;20399;-74
2023/03/18 04:57:51;;;;;;;14.00;4.13;;;;;;;;;;5112559;28;20059;-73
2023/03/18 05:00:22;;;;;;;12.32;4.07;;;;;;;;;;5112847;28;20467;-74
2023/03/18 05:02:48;;;;;;;9.70;3.63;;;;;;;;;;5111657;28;20043;-74
2023/03/18 05:05:14;;;;;;;10.80;3.47;;;;;;;;;;5113312;28;20039;-74
2023/03/18 05:07:41;;;;;;;12.75;3.80;;;;;;;;;;5107118;28;20034;-74
2023/03/18 05:10:07;;;;;;;9.95;3.92;;;;;;;;;;5112128;28;20421;-73
2023/03/18 05:12:33;;;;;;;14.07;3.97;;;;;;;;;;5108025;28;20024;-74
2023/03/18 05:14:59;;;;;;;12.23;4.43;;;;;;;;;;5112678;28;20372;-73
2023/03/18 05:17:24;;;;;;;14.30;4.03;;;;;;;;;;5106893;28;20074;-73
2023/03/18 05:19:50;;;;;;;8.70;3.85;;;;;;;;;;5112961;28;20035;-73
2023/03/18 05:22:17;;;;;;;14.40;4.05;;;;;;;;;;5107331;28;20543;-74
2023/03/18 05:24:44;;;;;;;14.02;4.05;;;;;;;;;;5113283;28;20028;-74
2023/03/18 05:27:10;;;;;;;13.20;4.07;;;;;;;;;;5111652;28;20031;-73
2023/03/18 05:29:39;;;;;;;10.75;4.45;;;;;;;;;;5112727;28;20059;-73
2023/03/18 05:32:06;;;;;;;23.35;4.25;;;;;;;;;;5115366;28;20035;-74
2023/03/18 05:34:33;;;;;;;11.45;4.20;;;;;;;;;;5117474;28;20066;-74
2023/03/18 05:36:59;;;;;;;10.98;4.28;;;;;;;;;;5114467;28;20030;-73
2023/03/18 05:39:25;;;;;;;11.02;4.20;;;;;;;;;;5104964;28;20415;-73
2023/03/18 05:41:51;;;;;;;17.90;4.60;;;;;;;;;;5114159;28;20043;-74
2023/03/18 05:44:16;;;;;;;17.10;4.40;;;;;;;;;;5116504;28;20456;-74
2023/03/18 05:46:42;;;;;;;8.95;3.97;;;;;;;;;;5113327;28;20122;-74
2023/03/18 05:49:07;;;;;;;12.15;4.32;;;;;;;;;;5109108;28;20490;-73
2023/03/18 05:51:33;;;;;;;15.55;4.07;;;;;;;;;;5112648;28;20028;-74
2023/03/18 05:53:58;;;;;;;12.20;4.05;;;;;;;;;;5103442;28;20483;-73
2023/03/18 05:56:24;;;;;;;15.65;4.00;;;;;;;;;;5115716;28;20043;-73
2023/03/18 05:58:50;;;;;;;11.77;4.15;;;;;;;;;;5109412;28;20082;-74
2023/03/18 06:01:18;;;;;;;15.10;4.00;;;;;;;;;;5109880;28;20047;-74
2023/03/18 06:03:44;;;;;;;6.63;3.80;;;;;;;;;;5115834;28;20076;-74
2023/03/18 06:06:10;;;;;;;18.27;4.20;;;;;;;;;;5116445;28;20028;-73
2023/03/18 06:08:36;;;;;;;9.70;3.50;;;;;;;;;;5115082;28;20047;-74
2023/03/18 06:11:02;;;;;;;7.68;3.95;;;;;;;;;;5104394;28;20035;-74
2023/03/18 06:13:28;;;;;;;12.73;3.70;;;;;;;;;;5111266;28;20024;-74
2023/03/18 06:15:58;;;;;;;7.03;3.05;;;;;;;;;;5095732;28;20069;-74
2023/03/18 06:18:24;;;;;;;13.35;3.70;;;;;;;;;;5102122;28;20348;-74
2023/03/18 06:20:49;;;;;;;8.20;3.17;;;;;;;;;;5111493;28;20035;-74
2023/03/18 06:23:15;;;;;;;10.18;3.33;;;;;;;;;;5101243;28;20120;-74
2023/03/18 06:25:40;;;;;;;12.80;3.88;;;;;;;;;;5099154;28;20044;-74
2023/03/18 06:28:06;;;;;;;19.30;3.88;;;;;;;;;;5097032;28;20453;-74
2023/03/18 06:30:32;;;;;;;10.20;3.58;;;;;;;;;;5111137;28;20540;-73
2023/03/18 06:32:58;;;;;;;9.93;3.97;;;;;;;;;;5115567;28;20038;-74
2023/03/18 06:35:26;;;;;;;12.68;4.60;;;;;;;;;;5116153;28;20106;-74
2023/03/18 06:37:52;;;;;;;12.50;4.13;;;;;;;;;;5109596;28;20067;-74
2023/03/18 06:40:18;;;;;;;21.60;4.78;;;;;;;;;;5103115;28;20034;-74
2023/03/18 06:42:44;;;;;;;10.32;3.90;;;;;;;;;;5110021;28;20031;-74
2023/03/18 06:45:10;;;;;;;11.30;4.22;;;;;;;;;;5107261;28;20039;-74
2023/03/18 06:47:36;;;;;;;11.00;4.07;;;;;;;;;;5108032;28;20109;-74
2023/03/18 06:50:02;;;;;;;9.63;4.15;;;;;;;;;;5096775;28;20044;-74
2023/03/18 06:52:27;;;;;;;8.75;4.20;;;;;;;;;;5114904;28;20063;-74
2023/03/18 06:54:52;;;;;;;8.02;3.80;;;;;;;;;;5114995;28;20039;-74
2023/03/18 06:57:19;;;;;;;14.77;3.40;;;;;;;;;;5114307;28;20031;-74
2023/03/18 06:59:45;;;;;;;16.67;2.80;;;;;;;;;;5115222;28;20040;-74
2023/03/18 07:02:11;;;;;;;9.50;2.55;;;;;;;;;;5114361;28;20042;-73
2023/03/18 07:04:37;;;;;;;12.00;2.28;;;;;;;;;;5114745;27;20420;-74
2023/03/18 07:07:03;;;;;;;12.32;3.13;;;;;;;;;;5110163;28;20032;-74
2023/03/18 07:09:30;;;;;;;8.35;2.42;;;;;;;;;;5099990;28;20055;-73
2023/03/18 07:11:56;;;;;;;11.50;2.30;;;;;;;;;;5112347;28;20032;-73
2023/03/18 07:14:22;;;;;;;11.20;2.63;;;;;;;;;;5112640;28;20042;-73
2023/03/18 07:16:47;;;;;;;13.68;2.35;;;;;;;;;;5114516;28;20391;-74
2023/03/18 07:19:14;;;;;;;9.77;2.10;;;;;;;;;;5114096;28;20035;-74
2023/03/18 07:21:41;;;;;;;7.80;2.00;;;;;;;;;;5114631;28;20035;-74
2023/03/18 07:24:07;;;;;;;5.82;1.75;;;;;;;;;;5112942;28;20035;-74
2023/03/18 07:26:33;;;;;;;11.93;2.17;;;;;;;;;;5114439;28;20029;-73
2023/03/18 07:28:58;;;;;;;11.13;2.33;;;;;;;;;;5114799;28;20463;-73
2023/03/18 07:31:24;;;;;;;15.75;2.60;;;;;;;;;;5113479;28;20034;-74
2023/03/18 07:33:50;;;;;;;12.35;2.55;;;;;;;;;;5102244;27;20047;-74
2023/03/18 07:36:15;;;;;;;11.60;2.35;;;;;;;;;;5114481;28;20483;-74
2023/03/18 07:38:41;;;;;;;13.32;2.40;;;;;;;;;;5113550;28;20085;-74
2023/03/18 07:41:07;;;;;;;10.50;2.03;;;;;;;;;;5110727;28;20042;-74
2023/03/18 07:43:33;;;;;;;9.02;2.08;;;;;;;;;;5109933;28;20040;-74
2023/03/18 07:45:59;;;;;;;12.95;2.50;;;;;;;;;;5111488;28;20041;-74
2023/03/18 07:48:25;;;;;;;14.18;2.20;;;;;;;;;;5106859;28;20111;-74
2023/03/18 07:50:50;;;;;;;12.35;2.92;;;;;;;;;;5104312;28;20027;-74
2023/03/18 07:53:16;;;;;;;10.90;2.80;;;;;;;;;;5109376;28;20089;-74
2023/03/18 07:55:41;;;;;;;13.70;3.33;;;;;;;;;;5103915;28;20119;-73
2023/03/18 07:58:09;;;;;;;9.85;3.42;;;;;;;;;;5102654;28;20036;-74
2023/03/18 08:00:35;;;;;;;11.57;2.90;;;;;;;;;;5104119;28;20035;-73
2023/03/18 08:03:00;;;;;;;14.63;2.40;;;;;;;;;;5113488;28;20031;-73
2023/03/18 08:05:26;;;;;;;13.35;2.55;;;;;;;;;;5109100;28;20027;-74
2023/03/18 08:07:52;;;;;;;16.92;2.75;;;;;;;;;;5112470;28;20047;-74
2023/03/18 08:10:18;;;;;;;20.60;2.35;;;;;;;;;;5113021;28;20479;-74
2023/03/18 08:12:43;;;;;;;15.07;2.53;;;;;;;;;;5113325;28;20032;-74
2023/03/18 08:15:10;;;;;;;13.60;2.47;;;;;;;;;;5110381;28;20036;-74
2023/03/18 08:17:36;;;;;;;18.15;2.95;;;;;;;;;;5104934;28;20032;-74
2023/03/18 08:20:03;;;;;;;13.55;2.85;;;;;;;;;;5087106;28;20390;-74
2023/03/18 08:22:29;;;;;;;15.90;3.30;;;;;;;;;;5113780;28;20031;-74
2023/03/18 08:24:54;;;;;;;14.57;2.65;;;;;;;;;;5113315;28;20121;-74
2023/03/18 08:27:20;;;;;;;11.85;2.40;;;;;;;;;;5110785;28;20092;-74
2023/03/18 08:29:45;;;;;;;16.98;3.20;;;;;;;;;;5110649;28;20039;-73
2023/03/18 08:32:11;;;;;;;10.75;3.38;;;;;;;;;;5102906;28;20032;-74
2023/03/18 08:34:36;;;;;;;12.75;3.13;;;;;;;;;;5109869;28;20023;-74
2023/03/18 08:37:03;;;;;;;16.08;6.40;;;;;;;;;;5103535;28;20103;-73
2023/03/18 08:39:29;;;;;;;16.48;3.47;;;;;;;;;;5109638;28;20088;-74
2023/03/18 08:41:55;;;;;;;15.10;3.55;;;;;;;;;;5112506;28;20032;-74
2023/03/18 08:44:20;;;;;;;15.98;3.15;;;;;;;;;;5109747;28;20053;-74
2023/03/18 08:46:46;;;;;;;16.45;4.30;;;;;;;;;;5111534;28;20031;-74
2023/03/18 08:49:12;;;;;;;18.63;2.35;;;;;;;;;;5103959;28;20088;-74
2023/03/18 08:51:38;;;;;;;8.43;2.13;;;;;;;;;;5105924;28;20039;-73
2023/03/18 08:54:04;;;;;;;10.05;2.17;;;;;;;;;;5106063;28;20048;-73
2023/03/18 08:56:30;;;;;;;12.40;3.50;;;;;;;;;;5108761;28;20092;-74
2023/03/18 08:58:55;;;;;;;16.70;3.30;;;;;;;;;;5110871;28;20032;-74
2023/03/18 09:01:21;;;;;;;14.65;3.28;;;;;;;;;;5111636;28;20031;-74
2023/03/18 09:03:48;;;;;;;13.07;2.63;;;;;;;;;;5108119;28;20122;-74
2023/03/18 09:06:14;;;;;;;11.93;2.78;;;;;;;;;;5113447;28;20468;-74
2023/03/18 09:08:39;;;;;;;13.45;3.08;;;;;;;;;;5117336;28;20031;-74
2023/03/18 09:11:06;;;;;;;13.27;3.03;;;;;;;;;;5115854;28;20044;-74
2023/03/18 09:13:31;;;;;;;16.13;3.17;;;;;;;;;;5108886;28;20085;-74
2023/03/18 09:15:58;;;;;;;13.90;2.75;;;;;;;;;;5111601;28;20395;-74
2023/03/18 09:18:24;;;;;;;11.30;2.42;;;;;;;;;;5114663;28;20032;-74
2023/03/18 09:20:49;;;;;;;15.07;4.07;;;;;;;;;;5114672;28;20024;-74
2023/03/18 09:23:17;;;;;;;13.57;2.90;;;;;;;;;;5110751;28;20036;-74
2023/03/18 09:25:43;;;;;;;21.13;5.03;;;;;;;;;;5115864;28;20059;-74
2023/03/18 09:28:09;;;;;;;26.88;5.97;;;;;;;;;;5114657;28;20035;-74
2023/03/18 09:30:34;;;;;;;26.48;7.93;;;;;;;;;;5117094;28;20034;-73
2023/03/18 09:33:00;;;;;;;27.67;5.47;;;;;;;;;;5115258;28;20036;-74
2023/03/18 09:35:27;;;;;;;16.45;3.03;;;;;;;;;;5115846;28;20084;-74
2023/03/18 09:37:53;;;;;;;24.58;5.82;;;;;;;;;;5115397;28;20418;-74
2023/03/18 09:41:08;;;;;;;16.17;3.55;;;;;;;;;;5117133;28;20054;-74
2023/03/18 09:43:52;;;;;;;17.60;2.42;;;;;;;;;;5065968;28;20436;-74
2023/03/18 09:46:39;;;;;;;18.25;3.58;;;;;;;;;;5115741;28;20039;-75
2023/03/18 09:49:23;;;;;;;28.95;5.85;;;;;;;;;;5110070;28;20081;-74
2023/03/18 09:52:12;;;;;;;14.40;2.65;;;;;;;;;;5101362;28;20031;-74
2023/03/18 09:54:47;;;;;;;7.45;2.00;;;;;;;;;;5100107;28;20127;-74
2023/03/18 09:57:28;;;;;;;9.35;1.88;;;;;;;;;;5099528;28;20074;-74
2023/03/18 10:00:07;;;;;;;7.30;1.60;;;;;;;;;;5108406;28;20038;-75
2023/03/18 10:03:08;;;;;;;12.27;1.60;;;;;;;;;;5116437;28;20548;-75
2023/03/18 10:05:36;;;;;;;7.80;1.50;;;;;;;;;;5081846;28;20580;-74
2023/03/18 10:08:23;;;;;;;9.82;2.00;;;;;;;;;;5114492;28;20118;-74
2023/03/18 10:10:49;;;;;;;11.20;2.45;;;;;;;;;;5111232;28;20024;-75
2023/03/18 10:13:43;;;;;;;10.82;2.03;;;;;;;;;;5115129;28;20118;-75
2023/03/18 10:16:12;;;;;;;8.80;1.98;;;;;;;;;;5110438;28;20497;-74
2023/03/18 10:18:40;;;;;;;9.90;2.10;;;;;;;;;;5114361;28;20115;-75
2023/03/18 10:21:12;;;;;;;8.32;1.75;;;;;;;;;;5113836;28;20124;-74
2023/03/18 10:24:07;;;;;;;6.32;1.50;;;;;;;;;;5110480;28;20490;-75
2023/03/18 10:27:07;;;;;;;10.95;2.10;;;;;;;;;;5108134;28;20085;-75
2023/03/18 10:30:27;;;;;;;8.32;1.77;;;;;;;;;;5112940;28;20506;-76
2023/03/18 10:33:23;;;;;;;8.15;1.52;;;;;;;;;;5066966;28;20044;-76
2023/03/18 10:36:12;;;;;;;8.88;2.05;;;;;;;;;;5109221;28;20047;-76
2023/03/18 10:38:42;;;;;;;7.25;1.55;;;;;;;;;;5103998;28;20032;-77
2023/03/18 10:41:43;;;;;;;7.47;1.80;;;;;;;;;;5105914;28;20042;-76
2023/03/18 10:44:39;;;;;;;7.93;1.48;;;;;;;;;;5044452;28;20047;-76
2023/03/18 10:47:14;;;;;;;7.55;1.30;;;;;;;;;;5104144;27;20032;-76
2023/03/18 10:49:43;;;;;;;5.40;1.20;;;;;;;;;;5106851;28;20546;-76
2023/03/18 10:52:24;;;;;;;5.65;1.20;;;;;;;;;;5112233;28;20062;-76
2023/03/18 10:54:53;;;;;;;6.65;1.50;;;;;;;;;;5111318;28;20044;-76
2023/03/18 10:57:20;;;;;;;10.25;1.80;;;;;;;;;;5108165;28;20071;-76
2023/03/18 10:59:50;;;;;;;8.63;1.83;;;;;;;;;;5108357;28;20084;-76
2023/03/18 11:02:30;;;;;;;5.05;1.23;;;;;;;;;;5114805;28;20062;-76
2023/03/18 11:05:00;;;;;;;4.20;1.33;;;;;;;;;;5101146;28;20093;-76
2023/03/18 11:07:27;;;;;;;5.05;1.25;;;;;;;;;;5111971;28;20077;-77
2023/03/18 11:09:53;;;;;;;4.97;1.65;;;;;;;;;;5104680;28;20103;-76
2023/03/18 11:12:27;;;;;;;5.70;1.10;;;;;;;;;;5110611;28;20104;-76
2023/03/18 11:14:53;;;;;;;6.47;1.33;;;;;;;;;;5102186;28;20429;-76
2023/03/18 11:17:26;;;;;;;2.75;0.95;;;;;;;;;;5103402;28;20061;-75
2023/03/18 11:20:06;;;;;;;6.57;1.20;;;;;;;;;;5114542;28;20036;-75
2023/03/18 11:22:33;;;;;;;2.55;0.73;;;;;;;;;;5112568;28;20463;-75
2023/03/18 11:25:04;;;;;;;4.07;1.00;;;;;;;;;;5103669;28;20539;-76
2023/03/18 11:27:51;;;;;;;3.38;1.00;;;;;;;;;;5112274;28;20078;-75
2023/03/18 11:30:16;;;;;;;2.53;0.80;;;;;;;;;;5110468;28;20036;-75
2023/03/18 11:33:03;;;;;;;2.42;0.88;;;;;;;;;;5107443;28;20380;-76
2023/03/18 11:35:50;;;;;;;2.10;0.60;;;;;;;;;;5109293;28;20399;-76
2023/03/18 11:38:27;;;;;;;3.33;0.80;;;;;;;;;;5107247;28;20039;-75
2023/03/18 11:41:10;;;;;;;4.32;1.10;;;;;;;;;;5112271;28;20471;-75
2023/03/18 11:43:37;;;;;;;3.88;0.98;;;;;;;;;;5112093;28;20035;-74
2023/03/18 11:46:04;;;;;;;1.83;0.73;;;;;;;;;;5107952;28;20043;-75
2023/03/18 11:48:40;;;;;;;3.72;0.90;;;;;;;;;;5111627;28;20019;-74
2023/03/18 11:51:31;;;;;;;3.80;1.10;;;;;;;;;;5112400;28;20088;-75
2023/03/18 11:54:15;;;;;;;3.45;0.90;;;;;;;;;;5101996;28;20093;-75
2023/03/18 11:56:45;;;;;;;5.30;1.30;;;;;;;;;;5113458;28;20550;-75
2023/03/18 11:59:26;;;;;;;3.33;0.88;;;;;;;;;;5114446;28;20053;-76
2023/03/18 12:01:58;;;;;;;2.33;0.85;;;;;;;;;;5105033;28;20040;-75
2023/03/18 12:04:32;;;;;;;2.92;0.73;;;;;;;;;;5102906;28;20112;-75
2023/03/18 12:07:29;;;;;;;7.32;0.90;;;;;;;;;;5114295;28;20054;-75
2023/03/18 12:10:03;;;;;;;1.52;0.50;;;;;;;;;;5071918;28;20040;-75
2023/03/18 12:12:58;;;;;;;1.77;0.70;;;;;;;;;;5111357;28;20037;-75
2023/03/18 12:15:37;;;;;;;6.05;1.00;;;;;;;;;;5109596;28;20027;-75
2023/03/18 12:18:02;;;;;;;2.58;0.88;;;;;;;;;;5107994;28;20035;-75
2023/03/18 12:20:43;;;;;;;3.42;0.90;;;;;;;;;;5111638;28;20036;-76
2023/03/18 12:23:24;;;;;;;4.45;0.80;;;;;;;;;;5113180;28;20067;-75
2023/03/18 12:26:22;;;;;;;2.38;0.50;;;;;;;;;;5109631;28;20031;-75
2023/03/18 12:28:51;;;;;;;3.20;0.75;;;;;;;;;;5084603;28;20097;-75
2023/03/18 12:31:23;;;;;;;4.07;0.93;;;;;;;;;;5112839;28;20084;-75
2023/03/18 12:33:56;;;;;;;3.88;1.00;;;;;;;;;;5106557;28;20071;-75
2023/03/18 12:36:25;;;;;;;1.98;0.60;;;;;;;;;;5106159;28;20467;-75
2023/03/18 12:39:02;;;;;;;1.80;0.60;;;;;;;;;;5113746;28;20039;-75
2023/03/18 12:41:44;;;;;;;3.05;1.00;;;;;;;;;;5112238;28;20437;-75
2023/03/18 12:44:22;;;;;;;1.75;0.85;;;;;;;;;;5113823;28;20067;-75
2023/03/18 12:46:51;;;;;;;5.03;0.90;;;;;;;;;;5108994;28;20115;-75
2023/03/18 12:49:25;;;;;;;1.65;0.80;;;;;;;;;;5108078;28;20062;-75
2023/03/18 12:52:08;;;;;;;2.78;0.82;;;;;;;;;;5105831;28;20477;-75
2023/03/18 12:54:50;;;;;;;1.50;0.75;;;;;;;;;;5111984;28;20054;-75
2023/03/18 12:57:44;;;;;;;2.72;1.00;;;;;;;;;;5112495;28;20468;-75
2023/03/18 13:00:18;;;;;;;2.47;0.80;;;;;;;;;;5094815;28;20047;-75
2023/03/18 13:02:53;;;;;;;4.13;1.20;;;;;;;;;;5113045;28;20097;-75
2023/03/18 13:05:24;;;;;;;3.13;1.10;;;;;;;;;;5113293;28;20054;-75
2023/03/18 13:08:26;;;;;;;3.75;1.13;;;;;;;;;;5113361;28;20080;-75
2023/03/18 13:11:05;;;;;;;2.20;0.90;;;;;;;;;;5099338;28;20039;-76
2023/03/18 13:13:32;;;;;;;4.00;1.10;;;;;;;;;;5105496;28;20050;-76
2023/03/18 13:16:00;;;;;;;4.60;1.13;;;;;;;;;;5111906;28;20043;-75
2023/03/18 13:18:33;;;;;;;3.80;0.85;;;;;;;;;;5113411;28;20131;-75
2023/03/18 13:20:58;;;;;;;3.17;0.93;;;;;;;;;;5112200;28;20034;-75
2023/03/18 13:23:47;;;;;;;2.88;0.90;;;;;;;;;;5111867;28;20035;-75
2023/03/18 13:26:12;;;;;;;8.57;1.23;;;;;;;;;;5106985;28;20028;-75
2023/03/18 13:28:47;;;;;;;6.28;1.35;;;;;;;;;;5113152;28;20536;-75
2023/03/18 13:31:25;;;;;;;6.22;1.30;;;;;;;;;;5112858;28;20368;-75
2023/03/18 13:34:25;;;;;;;4.57;1.40;;;;;;;;;;5112030;28;20039;-75
2023/03/18 13:37:02;;;;;;;3.97;1.17;;;;;;;;;;5098916;28;20528;-75
2023/03/18 13:40:11;;;;;;;6.15;1.70;;;;;;;;;;5109079;28;20071;-75
2023/03/18 13:42:37;;;;;;;5.68;1.73;;;;;;;;;;5098209;28;20128;-75
2023/03/18 13:45:15;;;;;;;8.57;2.55;;;;;;;;;;5111223;28;20035;-75
2023/03/18 13:47:41;;;;;;;7.28;1.80;;;;;;;;;;5099149;28;20108;-75
2023/03/18 13:50:31;;;;;;;6.80;1.90;;;;;;;;;;5110591;28;20085;-75
2023/03/18 13:52:58;;;;;;;8.27;2.17;;;;;;;;;;5114087;28;20031;-75
2023/03/18 13:55:29;;;;;;;7.10;1.92;;;;;;;;;;5116851;28;20063;-76
2023/03/18 13:57:56;;;;;;;8.35;2.08;;;;;;;;;;5116972;28;20030;-76
2023/03/18 14:00:27;;;;;;;6.72;1.70;;;;;;;;;;5116773;28;20034;-76
2023/03/18 14:03:05;;;;;;;7.65;2.30;;;;;;;;;;5101407;28;20044;-76
2023/03/18 14:05:30;;;;;;;5.53;2.00;;;;;;;;;;5116787;28;20027;-75
2023/03/18 14:07:56;;;;;;;6.80;2.22;;;;;;;;;;5116628;28;20040;-76
2023/03/18 14:10:22;;;;;;;6.45;2.30;;;;;;;;;;5115295;28;20035;-76
2023/03/18 14:12:48;;;;;;;7.38;2.55;;;;;;;;;;5112579;28;20069;-76
2023/03/18 14:15:13;;;;;;;6.22;2.38;;;;;;;;;;5110631;28;20387;-75
2023/03/18 14:17:46;;;;;;;8.43;2.92;;;;;;;;;;5116164;28;20039;-75
2023/03/18 14:20:17;;;;;;;7.47;2.88;;;;;;;;;;5108519;28;20028;-75
2023/03/18 14:22:52;;;;;;;6.63;3.17;;;;;;;;;;5110622;28;20046;-75
2023/03/18 14:25:33;;;;;;;8.80;2.88;;;;;;;;;;5110180;28;20119;-75
2023/03/18 14:28:08;;;;;;;6.93;2.58;;;;;;;;;;5114493;28;20555;-75
2023/03/18 14:30:34;;;;;;;12.60;3.25;;;;;;;;;;5116222;28;20027;-75
2023/03/18 14:33:21;;;;;;;6.80;2.65;;;;;;;;;;5104146;28;20081;-75
2023/03/18 14:35:51;;;;;;;6.88;2.53;;;;;;;;;;5094379;28;20059;-76
2023/03/18 14:38:23;;;;;;;9.88;2.75;;;;;;;;;;5114854;28;20126;-76
2023/03/18 14:40:52;;;;;;;8.35;1.63;;;;;;;;;;5114650;28;20057;-75
2023/03/18 14:43:39;;;;;;;9.35;2.13;;;;;;;;;;5113273;28;20067;-75
2023/03/18 14:46:17;;;;;;;14.45;2.72;;;;;;;;;;5111780;28;20044;-75
2023/03/18 14:48:43;;;;;;;7.82;2.60;;;;;;;;;;5109515;28;20058;-75
2023/03/18 14:51:18;;;;;;;8.95;4.10;;;;;;;;;;5114472;28;20035;-75
2023/03/18 14:54:13;;;;;;;10.88;2.42;;;;;;;;;;5114020;28;20454;-75